sensor_id;sensor_type;location;lat;lon;timestamp;temperature;humidity
32839;DHT22;19182;41.820;12.808;2023-09-19T00:01:33;21.00;99.90
32839;DHT22;19182;41.820;12.808;2023-09-19T00:03:59;21.00;99.90
32839;DHT22;19182;41.820;12.808;2023-09-19T00:06:32;21.00;99.90
32839;DHT22;19182;41.820;12.808;2023-09-19T00:08:59;21.10;99.90
32839;DHT22;19182;41.820;12.808;2023-09-19T00:11:25;21.20;99.90
32839;DHT22;19182;41.820;12.808;2023-09-19T00:13:52;21.20;99.90
32839;DHT22;19182;41.820;12.808;2023-09-19T00:16:18;21.30;99.90
32839;DHT22;19182;41.820;12.808;2023-09-19T00:18:45;21.30;99.90
32839;DHT22;19182;41.820;12.808;2023-09-19T00:21:12;21.30;99.90
32839;DHT22;19182;41.820;12.808;2023-09-19T00:23:38;21.20;99.90
32839;DHT22;19182;41.820;12.808;2023-09-19T00:26:06;21.10;99.90
32839;DHT22;19182;41.820;12.808;2023-09-19T00:28:32;21.10;99.90
32839;DHT22;19182;41.820;12.808;2023-09-19T00:30:58;21.10;99.90
32839;DHT22;19182;41.820;12.808;2023-09-19T00:33:27;21.10;99.90
32839;DHT22;19182;41.820;12.808;2023-09-19T00:35:56;20.90;99.90
32839;DHT22;19182;41.820;12.808;2023-09-19T00:38:22;20.80;99.90
32839;DHT22;19182;41.820;12.808;2023-09-19T00:40:53;20.80;99.90
32839;DHT22;19182;41.820;12.808;2023-09-19T00:43:19;20.40;99.90
32839;DHT22;19182;41.820;12.808;2023-09-19T00:45:48;20.90;99.90
32839;DHT22;19182;41.820;12.808;2023-09-19T00:48:16;20.90;99.90
32839;DHT22;19182;41.820;12.808;2023-09-19T00:50:45;20.90;99.90
32839;DHT22;19182;41.820;12.808;2023-09-19T00:53:15;20.80;99.90
32839;DHT22;19182;41.820;12.808;2023-09-19T00:55:45;20.80;99.90
32839;DHT22;19182;41.820;12.808;2023-09-19T00:58:12;20.80;99.90
32839;DHT22;19182;41.820;12.808;2023-09-19T01:00:38;20.90;99.90
32839;DHT22;19182;41.820;12.808;2023-09-19T01:03:05;20.80;99.90
32839;DHT22;19182;41.820;12.808;2023-09-19T01:05:33;20.80;99.90
32839;DHT22;19182;41.820;12.808;2023-09-19T01:08:01;20.80;99.90
32839;DHT22;19182;41.820;12.808;2023-09-19T01:10:26;20.80;99.90
32839;DHT22;19182;41.820;12.808;2023-09-19T01:13:01;20.60;99.90
32839;DHT22;19182;41.820;12.808;2023-09-19T01:24:26;20.30;99.90
32839;DHT22;19182;41.820;12.808;2023-09-19T01:29:39;20.20;99.90
32839;DHT22;19182;41.820;12.808;2023-09-19T01:32:06;20.20;99.90
32839;DHT22;19182;41.820;12.808;2023-09-19T01:37:12;20.20;99.90
32839;DHT22;19182;41.820;12.808;2023-09-19T01:39:40;20.20;99.90
32839;DHT22;19182;41.820;12.808;2023-09-19T01:42:10;20.20;99.90
32839;DHT22;19182;41.820;12.808;2023-09-19T01:44:42;20.20;99.90
32839;DHT22;19182;41.820;12.808;2023-09-19T01:52:38;20.00;99.90
32839;DHT22;19182;41.820;12.808;2023-09-19T01:55:09;20.00;99.90
32839;DHT22;19182;41.820;12.808;2023-09-19T01:58:15;19.90;99.90
32839;DHT22;19182;41.820;12.808;2023-09-19T02:00:43;19.90;99.90
32839;DHT22;19182;41.820;12.808;2023-09-19T02:03:11;20.00;99.90
32839;DHT22;19182;41.820;12.808;2023-09-19T02:05:38;19.90;99.90
32839;DHT22;19182;41.820;12.808;2023-09-19T02:08:05;19.90;99.90
32839;DHT22;19182;41.820;12.808;2023-09-19T02:10:31;20.00;99.90
32839;DHT22;19182;41.820;12.808;2023-09-19T02:12:56;20.00;99.90
32839;DHT22;19182;41.820;12.808;2023-09-19T02:15:22;20.00;99.90
32839;DHT22;19182;41.820;12.808;2023-09-19T02:17:49;19.90;99.90
32839;DHT22;19182;41.820;12.808;2023-09-19T02:20:15;19.90;99.90
32839;DHT22;19182;41.820;12.808;2023-09-19T02:22:43;20.00;99.90
32839;DHT22;19182;41.820;12.808;2023-09-19T02:25:10;20.00;99.90
32839;DHT22;19182;41.820;12.808;2023-09-19T02:27:36;19.90;99.90
32839;DHT22;19182;41.820;12.808;2023-09-19T02:30:04;19.80;99.90
32839;DHT22;19182;41.820;12.808;2023-09-19T02:32:31;19.90;99.90
32839;DHT22;19182;41.820;12.808;2023-09-19T02:35:00;19.90;99.90
32839;DHT22;19182;41.820;12.808;2023-09-19T02:37:26;20.00;99.90
32839;DHT22;19182;41.820;12.808;2023-09-19T02:39:53;20.00;99.90
32839;DHT22;19182;41.820;12.808;2023-09-19T02:42:19;20.10;99.90
32839;DHT22;19182;41.820;12.808;2023-09-19T02:44:46;20.10;99.90
32839;DHT22;19182;41.820;12.808;2023-09-19T02:47:14;20.00;99.90
32839;DHT22;19182;41.820;12.808;2023-09-19T02:49:40;19.90;99.90
32839;DHT22;19182;41.820;12.808;2023-09-19T02:52:08;20.00;99.90
32839;DHT22;19182;41.820;12.808;2023-09-19T02:54:33;20.00;99.90
32839;DHT22;19182;41.820;12.808;2023-09-19T02:56:59;19.90;99.90
32839;DHT22;19182;41.820;12.808;2023-09-19T02:59:26;20.00;99.90
32839;DHT22;19182;41.820;12.808;2023-09-19T03:01:51;20.00;99.90
32839;DHT22;19182;41.820;12.808;2023-09-19T03:04:20;20.00;99.90
32839;DHT22;19182;41.820;12.808;2023-09-19T03:06:47;19.90;99.90
32839;DHT22;19182;41.820;12.808;2023-09-19T03:09:14;19.90;99.90
32839;DHT22;19182;41.820;12.808;2023-09-19T03:11:41;19.90;99.90
32839;DHT22;19182;41.820;12.808;2023-09-19T03:14:07;19.90;99.90
32839;DHT22;19182;41.820;12.808;2023-09-19T03:16:34;19.90;99.90
32839;DHT22;19182;41.820;12.808;2023-09-19T03:19:02;19.90;99.90
32839;DHT22;19182;41.820;12.808;2023-09-19T03:21:29;19.90;99.90
32839;DHT22;19182;41.820;12.808;2023-09-19T03:23:57;19.80;99.90
32839;DHT22;19182;41.820;12.808;2023-09-19T03:26:24;19.70;99.90
32839;DHT22;19182;41.820;12.808;2023-09-19T03:28:53;19.70;99.90
32839;DHT22;19182;41.820;12.808;2023-09-19T03:31:19;19.70;99.90
32839;DHT22;19182;41.820;12.808;2023-09-19T03:33:46;19.70;99.90
32839;DHT22;19182;41.820;12.808;2023-09-19T03:36:11;19.70;99.90
32839;DHT22;19182;41.820;12.808;2023-09-19T03:38:38;19.70;99.90
32839;DHT22;19182;41.820;12.808;2023-09-19T03:41:04;19.70;99.90
32839;DHT22;19182;41.820;12.808;2023-09-19T03:43:31;19.70;99.90
32839;DHT22;19182;41.820;12.808;2023-09-19T03:46:00;19.70;99.90
32839;DHT22;19182;41.820;12.808;2023-09-19T03:48:26;19.60;99.90
32839;DHT22;19182;41.820;12.808;2023-09-19T03:50:53;19.60;99.90
32839;DHT22;19182;41.820;12.808;2023-09-19T03:53:22;19.50;99.90
32839;DHT22;19182;41.820;12.808;2023-09-19T03:55:47;19.50;99.90
32839;DHT22;19182;41.820;12.808;2023-09-19T03:58:13;19.60;99.90
32839;DHT22;19182;41.820;12.808;2023-09-19T04:00:40;19.60;99.90
32839;DHT22;19182;41.820;12.808;2023-09-19T04:03:06;19.50;99.90
32839;DHT22;19182;41.820;12.808;2023-09-19T04:05:33;19.40;99.90
32839;DHT22;19182;41.820;12.808;2023-09-19T04:07:59;19.50;99.90
32839;DHT22;19182;41.820;12.808;2023-09-19T04:10:25;19.30;99.90
32839;DHT22;19182;41.820;12.808;2023-09-19T04:12:55;19.20;99.90
32839;DHT22;19182;41.820;12.808;2023-09-19T04:15:23;19.10;99.90
32839;DHT22;19182;41.820;12.808;2023-09-19T04:17:51;18.90;99.90
32839;DHT22;19182;41.820;12.808;2023-09-19T04:20:18;18.90;99.90
32839;DHT22;19182;41.820;12.808;2023-09-19T04:22:50;18.90;99.90
32839;DHT22;19182;41.820;12.808;2023-09-19T04:25:16;19.00;99.90
32839;DHT22;19182;41.820;12.808;2023-09-19T04:27:44;19.10;99.90
32839;DHT22;19182;41.820;12.808;2023-09-19T04:30:10;19.00;99.90
32839;DHT22;19182;41.820;12.808;2023-09-19T04:32:38;18.90;99.90
32839;DHT22;19182;41.820;12.808;2023-09-19T04:35:07;18.80;99.90
32839;DHT22;19182;41.820;12.808;2023-09-19T04:37:38;18.60;99.90
32839;DHT22;19182;41.820;12.808;2023-09-19T04:40:08;18.50;99.90
32839;DHT22;19182;41.820;12.808;2023-09-19T04:42:43;18.50;99.90
32839;DHT22;19182;41.820;12.808;2023-09-19T04:45:09;18.50;99.90
32839;DHT22;19182;41.820;12.808;2023-09-19T04:47:36;18.30;99.90
32839;DHT22;19182;41.820;12.808;2023-09-19T04:50:06;18.30;99.90
32839;DHT22;19182;41.820;12.808;2023-09-19T04:52:32;18.50;99.90
32839;DHT22;19182;41.820;12.808;2023-09-19T04:54:58;18.60;99.90
32839;DHT22;19182;41.820;12.808;2023-09-19T04:57:24;18.60;99.90
32839;DHT22;19182;41.820;12.808;2023-09-19T04:59:51;18.70;99.90
32839;DHT22;19182;41.820;12.808;2023-09-19T05:02:18;18.70;99.90
32839;DHT22;19182;41.820;12.808;2023-09-19T05:04:44;18.90;99.90
32839;DHT22;19182;41.820;12.808;2023-09-19T05:07:09;19.10;99.90
32839;DHT22;19182;41.820;12.808;2023-09-19T05:09:37;19.00;99.90
32839;DHT22;19182;41.820;12.808;2023-09-19T05:12:03;18.90;99.90
32839;DHT22;19182;41.820;12.808;2023-09-19T05:14:29;19.00;99.90
32839;DHT22;19182;41.820;12.808;2023-09-19T05:16:56;19.00;99.90
32839;DHT22;19182;41.820;12.808;2023-09-19T05:19:22;19.00;99.90
32839;DHT22;19182;41.820;12.808;2023-09-19T05:21:48;19.20;99.90
32839;DHT22;19182;41.820;12.808;2023-09-19T05:24:14;19.20;99.90
32839;DHT22;19182;41.820;12.808;2023-09-19T05:26:41;19.30;99.90
32839;DHT22;19182;41.820;12.808;2023-09-19T05:29:06;19.40;99.90
32839;DHT22;19182;41.820;12.808;2023-09-19T05:31:33;19.40;99.90
32839;DHT22;19182;41.820;12.808;2023-09-19T05:34:02;19.40;99.90
32839;DHT22;19182;41.820;12.808;2023-09-19T05:36:28;19.50;99.90
32839;DHT22;19182;41.820;12.808;2023-09-19T05:38:55;19.50;99.90
32839;DHT22;19182;41.820;12.808;2023-09-19T05:41:21;19.50;99.90
32839;DHT22;19182;41.820;12.808;2023-09-19T05:43:49;19.60;99.90
32839;DHT22;19182;41.820;12.808;2023-09-19T05:46:16;19.50;99.90
32839;DHT22;19182;41.820;12.808;2023-09-19T05:48:43;19.50;99.90
32839;DHT22;19182;41.820;12.808;2023-09-19T05:51:11;19.50;99.90
32839;DHT22;19182;41.820;12.808;2023-09-19T05:53:36;19.60;99.90
32839;DHT22;19182;41.820;12.808;2023-09-19T05:56:02;19.60;99.90
32839;DHT22;19182;41.820;12.808;2023-09-19T05:58:28;19.60;99.90
32839;DHT22;19182;41.820;12.808;2023-09-19T06:00:57;19.60;99.90
32839;DHT22;19182;41.820;12.808;2023-09-19T06:03:22;19.60;99.90
32839;DHT22;19182;41.820;12.808;2023-09-19T06:05:50;19.80;99.90
32839;DHT22;19182;41.820;12.808;2023-09-19T06:08:16;20.00;99.90
32839;DHT22;19182;41.820;12.808;2023-09-19T06:10:42;20.30;99.90
32839;DHT22;19182;41.820;12.808;2023-09-19T06:13:08;20.40;99.90
32839;DHT22;19182;41.820;12.808;2023-09-19T06:15:35;20.50;99.90
32839;DHT22;19182;41.820;12.808;2023-09-19T06:18:01;20.70;99.90
32839;DHT22;19182;41.820;12.808;2023-09-19T06:20:28;20.70;99.90
32839;DHT22;19182;41.820;12.808;2023-09-19T06:22:55;20.80;99.90
32839;DHT22;19182;41.820;12.808;2023-09-19T06:25:21;20.40;99.90
32839;DHT22;19182;41.820;12.808;2023-09-19T06:27:48;20.90;99.90
32839;DHT22;19182;41.820;12.808;2023-09-19T06:30:14;20.90;99.90
32839;DHT22;19182;41.820;12.808;2023-09-19T06:32:42;20.90;99.90
32839;DHT22;19182;41.820;12.808;2023-09-19T06:35:12;21.00;99.90
32839;DHT22;19182;41.820;12.808;2023-09-19T06:37:39;20.90;99.90
32839;DHT22;19182;41.820;12.808;2023-09-19T06:40:12;21.00;99.90
32839;DHT22;19182;41.820;12.808;2023-09-19T06:42:43;21.20;99.90
32839;DHT22;19182;41.820;12.808;2023-09-19T06:45:13;21.40;99.90
32839;DHT22;19182;41.820;12.808;2023-09-19T06:47:43;21.50;99.90
32839;DHT22;19182;41.820;12.808;2023-09-19T06:50:09;21.60;99.90
32839;DHT22;19182;41.820;12.808;2023-09-19T06:52:41;21.60;99.90
32839;DHT22;19182;41.820;12.808;2023-09-19T06:55:07;21.70;99.90
32839;DHT22;19182;41.820;12.808;2023-09-19T06:57:33;21.90;99.90
32839;DHT22;19182;41.820;12.808;2023-09-19T06:59:58;22.30;99.90
32839;DHT22;19182;41.820;12.808;2023-09-19T07:02:26;22.80;99.90
32839;DHT22;19182;41.820;12.808;2023-09-19T07:04:51;23.50;99.90
32839;DHT22;19182;41.820;12.808;2023-09-19T07:07:17;23.90;99.90
32839;DHT22;19182;41.820;12.808;2023-09-19T07:09:42;23.90;99.90
32839;DHT22;19182;41.820;12.808;2023-09-19T07:12:08;24.00;99.90
32839;DHT22;19182;41.820;12.808;2023-09-19T07:14:36;24.30;99.90
32839;DHT22;19182;41.820;12.808;2023-09-19T07:17:03;24.70;99.90
32839;DHT22;19182;41.820;12.808;2023-09-19T07:19:30;25.50;99.90
32839;DHT22;19182;41.820;12.808;2023-09-19T07:21:57;25.90;99.90
32839;DHT22;19182;41.820;12.808;2023-09-19T07:24:24;26.10;99.90
32839;DHT22;19182;41.820;12.808;2023-09-19T07:26:53;25.80;99.90
32839;DHT22;19182;41.820;12.808;2023-09-19T07:29:18;25.80;99.90
32839;DHT22;19182;41.820;12.808;2023-09-19T07:31:44;26.00;99.90
32839;DHT22;19182;41.820;12.808;2023-09-19T07:34:10;25.80;99.90
32839;DHT22;19182;41.820;12.808;2023-09-19T07:36:37;25.00;99.90
32839;DHT22;19182;41.820;12.808;2023-09-19T07:39:03;26.00;99.90
32839;DHT22;19182;41.820;12.808;2023-09-19T07:41:33;26.40;99.90
32839;DHT22;19182;41.820;12.808;2023-09-19T07:43:59;26.60;99.90
32839;DHT22;19182;41.820;12.808;2023-09-19T07:46:25;26.50;99.90
32839;DHT22;19182;41.820;12.808;2023-09-19T07:48:51;26.70;99.90
32839;DHT22;19182;41.820;12.808;2023-09-19T07:51:17;26.60;99.90
32839;DHT22;19182;41.820;12.808;2023-09-19T07:53:43;26.90;99.90
32839;DHT22;19182;41.820;12.808;2023-09-19T07:56:11;27.20;99.90
32839;DHT22;19182;41.820;12.808;2023-09-19T07:58:40;27.70;99.90
32839;DHT22;19182;41.820;12.808;2023-09-19T08:01:10;28.00;99.90
32839;DHT22;19182;41.820;12.808;2023-09-19T08:03:36;28.30;99.90
32839;DHT22;19182;41.820;12.808;2023-09-19T08:06:09;28.40;99.90
32839;DHT22;19182;41.820;12.808;2023-09-19T08:08:36;28.10;99.90
32839;DHT22;19182;41.820;12.808;2023-09-19T08:11:03;28.20;99.90
32839;DHT22;19182;41.820;12.808;2023-09-19T08:13:41;28.10;99.90
32839;DHT22;19182;41.820;12.808;2023-09-19T08:16:13;27.70;99.90
32839;DHT22;19182;41.820;12.808;2023-09-19T08:18:40;27.60;99.90
32839;DHT22;19182;41.820;12.808;2023-09-19T08:21:07;27.30;99.90
32839;DHT22;19182;41.820;12.808;2023-09-19T08:23:36;27.50;99.90
32839;DHT22;19182;41.820;12.808;2023-09-19T08:26:02;27.50;99.90
32839;DHT22;19182;41.820;12.808;2023-09-19T08:28:32;27.60;99.90
32839;DHT22;19182;41.820;12.808;2023-09-19T08:31:05;27.90;99.90
32839;DHT22;19182;41.820;12.808;2023-09-19T08:33:36;27.30;99.90
32839;DHT22;19182;41.820;12.808;2023-09-19T08:36:03;27.80;99.90
32839;DHT22;19182;41.820;12.808;2023-09-19T08:38:33;27.80;99.90
32839;DHT22;19182;41.820;12.808;2023-09-19T08:40:59;28.20;99.90
32839;DHT22;19182;41.820;12.808;2023-09-19T08:43:26;28.60;99.90
32839;DHT22;19182;41.820;12.808;2023-09-19T08:46:02;29.10;99.90
32839;DHT22;19182;41.820;12.808;2023-09-19T08:48:30;29.60;99.90
32839;DHT22;19182;41.820;12.808;2023-09-19T08:51:06;29.30;99.90
32839;DHT22;19182;41.820;12.808;2023-09-19T08:53:52;29.00;99.90
32839;DHT22;19182;41.820;12.808;2023-09-19T08:56:20;29.50;99.90
32839;DHT22;19182;41.820;12.808;2023-09-19T08:58:55;29.60;99.90
32839;DHT22;19182;41.820;12.808;2023-09-19T09:01:24;29.60;99.90
32839;DHT22;19182;41.820;12.808;2023-09-19T09:03:53;29.90;99.90
32839;DHT22;19182;41.820;12.808;2023-09-19T09:06:20;30.10;99.90
32839;DHT22;19182;41.820;12.808;2023-09-19T09:08:47;30.30;99.90
32839;DHT22;19182;41.820;12.808;2023-09-19T09:11:16;30.30;99.90
32839;DHT22;19182;41.820;12.808;2023-09-19T09:13:46;30.50;99.90
32839;DHT22;19182;41.820;12.808;2023-09-19T09:16:13;30.90;99.90
32839;DHT22;19182;41.820;12.808;2023-09-19T09:18:40;30.70;99.90
32839;DHT22;19182;41.820;12.808;2023-09-19T09:21:06;30.60;99.90
32839;DHT22;19182;41.820;12.808;2023-09-19T09:23:32;30.50;99.90
32839;DHT22;19182;41.820;12.808;2023-09-19T09:26:03;30.50;99.90
32839;DHT22;19182;41.820;12.808;2023-09-19T09:28:32;30.30;99.90
32839;DHT22;19182;41.820;12.808;2023-09-19T09:30:59;30.50;99.90
32839;DHT22;19182;41.820;12.808;2023-09-19T09:33:25;30.70;99.90
32839;DHT22;19182;41.820;12.808;2023-09-19T09:35:55;31.10;99.90
32839;DHT22;19182;41.820;12.808;2023-09-19T09:38:27;31.50;99.90
32839;DHT22;19182;41.820;12.808;2023-09-19T09:40:56;31.40;99.90
32839;DHT22;19182;41.820;12.808;2023-09-19T09:43:34;31.60;99.90
32839;DHT22;19182;41.820;12.808;2023-09-19T09:46:19;32.00;99.90
32839;DHT22;19182;41.820;12.808;2023-09-19T09:49:02;32.00;99.90
32839;DHT22;19182;41.820;12.808;2023-09-19T09:51:48;32.40;99.90
32839;DHT22;19182;41.820;12.808;2023-09-19T09:54:23;33.00;99.90
32839;DHT22;19182;41.820;12.808;2023-09-19T09:57:03;32.70;99.90
32839;DHT22;19182;41.820;12.808;2023-09-19T09:59:56;32.90;99.90
32839;DHT22;19182;41.820;12.808;2023-09-19T10:02:41;33.00;99.90
32839;DHT22;19182;41.820;12.808;2023-09-19T10:05:20;33.30;99.90
32839;DHT22;19182;41.820;12.808;2023-09-19T10:07:52;33.20;99.90
32839;DHT22;19182;41.820;12.808;2023-09-19T10:10:33;33.60;99.90
32839;DHT22;19182;41.820;12.808;2023-09-19T10:13:12;34.30;99.90
32839;DHT22;19182;41.820;12.808;2023-09-19T10:15:43;34.50;99.90
32839;DHT22;19182;41.820;12.808;2023-09-19T10:18:20;34.40;99.90
32839;DHT22;19182;41.820;12.808;2023-09-19T10:20:47;34.70;99.90
32839;DHT22;19182;41.820;12.808;2023-09-19T10:23:15;35.00;99.90
32839;DHT22;19182;41.820;12.808;2023-09-19T10:25:48;35.10;99.80
32839;DHT22;19182;41.820;12.808;2023-09-19T10:28:18;35.00;98.80
32839;DHT22;19182;41.820;12.808;2023-09-19T10:30:49;35.10;98.70
32839;DHT22;19182;41.820;12.808;2023-09-19T10:33:24;35.10;99.00
32839;DHT22;19182;41.820;12.808;2023-09-19T10:35:56;35.30;99.40
32839;DHT22;19182;41.820;12.808;2023-09-19T10:38:27;35.40;99.20
32839;DHT22;19182;41.820;12.808;2023-09-19T10:40:56;35.50;98.80
32839;DHT22;19182;41.820;12.808;2023-09-19T10:43:29;35.40;96.70
32839;DHT22;19182;41.820;12.808;2023-09-19T10:46:06;35.50;96.60
32839;DHT22;19182;41.820;12.808;2023-09-19T10:48:33;35.10;97.90
32839;DHT22;19182;41.820;12.808;2023-09-19T10:53:44;35.00;99.60
32839;DHT22;19182;41.820;12.808;2023-09-19T10:56:18;34.90;99.00
32839;DHT22;19182;41.820;12.808;2023-09-19T10:58:45;34.80;99.20
32839;DHT22;19182;41.820;12.808;2023-09-19T11:01:11;35.10;98.30
32839;DHT22;19182;41.820;12.808;2023-09-19T11:06:42;35.00;97.30
32839;DHT22;19182;41.820;12.808;2023-09-19T11:09:09;34.90;98.10
32839;DHT22;19182;41.820;12.808;2023-09-19T11:11:42;35.10;97.70
32839;DHT22;19182;41.820;12.808;2023-09-19T11:14:15;35.50;97.90
32839;DHT22;19182;41.820;12.808;2023-09-19T11:30:52;35.80;96.20
32839;DHT22;19182;41.820;12.808;2023-09-19T11:33:31;35.80;96.50
32839;DHT22;19182;41.820;12.808;2023-09-19T11:36:08;35.70;95.30
32839;DHT22;19182;41.820;12.808;2023-09-19T11:43:47;35.50;94.90
32839;DHT22;19182;41.820;12.808;2023-09-19T11:46:13;35.50;95.20
32839;DHT22;19182;41.820;12.808;2023-09-19T11:48:43;35.40;96.00
32839;DHT22;19182;41.820;12.808;2023-09-19T11:51:22;35.30;94.80
32839;DHT22;19182;41.820;12.808;2023-09-19T11:53:53;35.40;95.70
32839;DHT22;19182;41.820;12.808;2023-09-19T11:56:22;35.40;94.20
32839;DHT22;19182;41.820;12.808;2023-09-19T11:58:50;35.40;94.80
32839;DHT22;19182;41.820;12.808;2023-09-19T12:01:32;35.50;95.10
32839;DHT22;19182;41.820;12.808;2023-09-19T12:04:01;35.70;94.40
32839;DHT22;19182;41.820;12.808;2023-09-19T12:06:28;35.50;93.70
32839;DHT22;19182;41.820;12.808;2023-09-19T12:09:02;35.40;92.20
32839;DHT22;19182;41.820;12.808;2023-09-19T12:11:32;35.60;93.10
32839;DHT22;19182;41.820;12.808;2023-09-19T12:13:59;35.60;91.50
32839;DHT22;19182;41.820;12.808;2023-09-19T12:16:26;32.30;91.40
32839;DHT22;19182;41.820;12.808;2023-09-19T12:18:56;35.50;91.20
32839;DHT22;19182;41.820;12.808;2023-09-19T12:21:27;35.40;91.60
32839;DHT22;19182;41.820;12.808;2023-09-19T12:24:04;35.50;92.30
32839;DHT22;19182;41.820;12.808;2023-09-19T12:26:30;35.20;91.40
32839;DHT22;19182;41.820;12.808;2023-09-19T12:29:03;35.00;92.00
32839;DHT22;19182;41.820;12.808;2023-09-19T12:31:31;34.80;91.30
32839;DHT22;19182;41.820;12.808;2023-09-19T12:34:01;34.70;92.50
32839;DHT22;19182;41.820;12.808;2023-09-19T12:36:27;34.80;91.90
32839;DHT22;19182;41.820;12.808;2023-09-19T12:38:59;34.90;91.40
32839;DHT22;19182;41.820;12.808;2023-09-19T12:41:26;34.90;89.00
32839;DHT22;19182;41.820;12.808;2023-09-19T12:43:53;34.90;90.00
32839;DHT22;19182;41.820;12.808;2023-09-19T12:46:23;34.70;89.50
32839;DHT22;19182;41.820;12.808;2023-09-19T12:49:19;34.70;89.70
32839;DHT22;19182;41.820;12.808;2023-09-19T12:51:46;34.70;90.70
32839;DHT22;19182;41.820;12.808;2023-09-19T12:54:16;34.60;90.40
32839;DHT22;19182;41.820;12.808;2023-09-19T12:56:43;34.40;91.00
32839;DHT22;19182;41.820;12.808;2023-09-19T12:59:13;34.40;91.00
32839;DHT22;19182;41.820;12.808;2023-09-19T13:01:41;34.40;90.30
32839;DHT22;19182;41.820;12.808;2023-09-19T13:04:22;34.40;90.90
32839;DHT22;19182;41.820;12.808;2023-09-19T13:06:55;34.30;90.30
32839;DHT22;19182;41.820;12.808;2023-09-19T13:09:27;34.20;89.90
32839;DHT22;19182;41.820;12.808;2023-09-19T13:12:05;34.10;90.90
32839;DHT22;19182;41.820;12.808;2023-09-19T13:14:32;34.00;91.50
32839;DHT22;19182;41.820;12.808;2023-09-19T13:17:06;32.40;90.40
32839;DHT22;19182;41.820;12.808;2023-09-19T13:19:51;33.80;90.80
32839;DHT22;19182;41.820;12.808;2023-09-19T13:22:44;33.60;90.10
32839;DHT22;19182;41.820;12.808;2023-09-19T13:25:21;33.50;90.40
32839;DHT22;19182;41.820;12.808;2023-09-19T13:27:55;33.30;91.90
32839;DHT22;19182;41.820;12.808;2023-09-19T13:30:28;33.20;90.70
32839;DHT22;19182;41.820;12.808;2023-09-19T13:33:05;33.20;90.00
32839;DHT22;19182;41.820;12.808;2023-09-19T13:35:35;32.90;88.00
32839;DHT22;19182;41.820;12.808;2023-09-19T13:38:04;32.90;90.40
32839;DHT22;19182;41.820;12.808;2023-09-19T13:40:30;32.90;90.30
32839;DHT22;19182;41.820;12.808;2023-09-19T13:43:01;32.50;90.40
32839;DHT22;19182;41.820;12.808;2023-09-19T13:45:26;32.40;92.40
32839;DHT22;19182;41.820;12.808;2023-09-19T13:47:52;32.20;90.50
32839;DHT22;19182;41.820;12.808;2023-09-19T13:50:19;31.90;91.30
32839;DHT22;19182;41.820;12.808;2023-09-19T13:52:50;32.00;93.40
32839;DHT22;19182;41.820;12.808;2023-09-19T13:55:17;31.90;93.90
32839;DHT22;19182;41.820;12.808;2023-09-19T13:57:49;31.80;92.90
32839;DHT22;19182;41.820;12.808;2023-09-19T14:00:21;31.70;92.10
32839;DHT22;19182;41.820;12.808;2023-09-19T14:02:48;31.60;95.10
32839;DHT22;19182;41.820;12.808;2023-09-19T14:05:15;31.40;95.00
32839;DHT22;19182;41.820;12.808;2023-09-19T14:07:42;31.30;95.80
32839;DHT22;19182;41.820;12.808;2023-09-19T14:10:09;31.50;95.60
32839;DHT22;19182;41.820;12.808;2023-09-19T14:12:39;31.60;94.90
32839;DHT22;19182;41.820;12.808;2023-09-19T14:15:09;31.60;95.40
32839;DHT22;19182;41.820;12.808;2023-09-19T14:17:35;31.70;95.20
32839;DHT22;19182;41.820;12.808;2023-09-19T14:20:01;31.70;95.10
32839;DHT22;19182;41.820;12.808;2023-09-19T14:22:27;31.60;95.70
32839;DHT22;19182;41.820;12.808;2023-09-19T14:24:54;31.20;94.40
32839;DHT22;19182;41.820;12.808;2023-09-19T14:27:20;31.20;95.80
32839;DHT22;19182;41.820;12.808;2023-09-19T14:29:48;31.20;95.40
32839;DHT22;19182;41.820;12.808;2023-09-19T14:32:14;31.20;94.60
32839;DHT22;19182;41.820;12.808;2023-09-19T14:34:43;31.00;95.60
32839;DHT22;19182;41.820;12.808;2023-09-19T14:37:09;30.80;96.50
32839;DHT22;19182;41.820;12.808;2023-09-19T14:39:37;30.60;95.80
32839;DHT22;19182;41.820;12.808;2023-09-19T14:42:06;30.60;96.80
32839;DHT22;19182;41.820;12.808;2023-09-19T14:44:32;30.50;97.00
32839;DHT22;19182;41.820;12.808;2023-09-19T14:46:58;30.50;97.80
32839;DHT22;19182;41.820;12.808;2023-09-19T14:49:25;30.40;97.30
32839;DHT22;19182;41.820;12.808;2023-09-19T14:51:51;30.30;98.50
32839;DHT22;19182;41.820;12.808;2023-09-19T14:54:17;30.30;97.10
32839;DHT22;19182;41.820;12.808;2023-09-19T14:56:44;30.30;97.20
32839;DHT22;19182;41.820;12.808;2023-09-19T14:59:10;30.40;97.30
32839;DHT22;19182;41.820;12.808;2023-09-19T15:01:41;30.40;97.50
32839;DHT22;19182;41.820;12.808;2023-09-19T15:04:07;30.30;97.90
32839;DHT22;19182;41.820;12.808;2023-09-19T15:06:34;30.40;97.80
32839;DHT22;19182;41.820;12.808;2023-09-19T15:09:00;30.20;98.20
32839;DHT22;19182;41.820;12.808;2023-09-19T15:11:26;29.00;97.70
32839;DHT22;19182;41.820;12.808;2023-09-19T15:13:52;30.10;98.40
32839;DHT22;19182;41.820;12.808;2023-09-19T15:16:19;30.00;99.30
32839;DHT22;19182;41.820;12.808;2023-09-19T15:18:46;29.90;99.10
32839;DHT22;19182;41.820;12.808;2023-09-19T15:21:15;29.80;99.10
32839;DHT22;19182;41.820;12.808;2023-09-19T15:23:42;29.80;99.90
32839;DHT22;19182;41.820;12.808;2023-09-19T15:26:10;29.70;99.10
32839;DHT22;19182;41.820;12.808;2023-09-19T15:28:37;29.60;96.60
32839;DHT22;19182;41.820;12.808;2023-09-19T15:31:07;29.50;99.00
32839;DHT22;19182;41.820;12.808;2023-09-19T15:33:34;29.40;98.20
32839;DHT22;19182;41.820;12.808;2023-09-19T15:36:10;29.30;97.90
32839;DHT22;19182;41.820;12.808;2023-09-19T15:39:05;29.20;98.30
32839;DHT22;19182;41.820;12.808;2023-09-19T15:41:38;29.20;98.80
32839;DHT22;19182;41.820;12.808;2023-09-19T15:44:10;29.70;99.90
32839;DHT22;19182;41.820;12.808;2023-09-19T15:46:37;28.90;99.90
32839;DHT22;19182;41.820;12.808;2023-09-19T15:49:03;28.90;98.00
32839;DHT22;19182;41.820;12.808;2023-09-19T15:51:29;28.70;98.90
32839;DHT22;19182;41.820;12.808;2023-09-19T15:53:56;28.70;97.80
32839;DHT22;19182;41.820;12.808;2023-09-19T15:56:23;28.60;97.40
32839;DHT22;19182;41.820;12.808;2023-09-19T15:58:54;28.70;97.40
32839;DHT22;19182;41.820;12.808;2023-09-19T16:01:22;28.50;99.20
32839;DHT22;19182;41.820;12.808;2023-09-19T16:03:52;28.40;99.90
32839;DHT22;19182;41.820;12.808;2023-09-19T16:06:37;27.10;99.90
32839;DHT22;19182;41.820;12.808;2023-09-19T16:09:04;28.20;99.90
32839;DHT22;19182;41.820;12.808;2023-09-19T16:11:32;28.00;99.90